Terminal Aerodrome Forecast
Issued by NWS Portland, OR

Home | Current Version | Previous Version | Text Only | Print | Product List | Glossary On
Versions: 1 2 3 4 5 6 7 8 9 10 11 12 13 14 15 16 17 18 19 20 21 22 23 24 25 26 27 28 29 30 31 32 33 34
000
FTUS46 KPQR 170917 AAB
TAFEUG
TAF AMD
KEUG 170917Z 1709/1806 24004KT P6SM BKN090 OVC120
     FM171000 16005KT P6SM SCT050 OVC070
     FM171200 17008KT 5SM -RA BR BKN035 OVC050
     FM172300 20012KT 6SM -RA BKN040 BKN070
     FM180400 21015G25KT 4SM -RA SCT025 OVC040=

USA.gov is the U.S. government's official web portal to all federal, state and local government web resources and services.